Terminal Aerodrome Forecast
Issued by NWS Shreveport, LA

Home | Current Version | Previous Version | Text Only | Print | Product List | Glossary On
Versions: 1 2 3 4 5 6 7 8 9 10 11 12 13 14 15 16 17 18 19 20 21 22 23 24 25 26
000
FTUS44 KSHV 212129 AAB
TAFTXK
TAF AMD
KTXK 212129Z 2121/2218 29008KT P6SM SCT030 OVC050
      TEMPO 2122/2124 -SHRA OVC020
     FM220600 35004KT 5SM BR OVC010
      TEMPO 2209/2213 2SM BR OVC005
     FM221400 36004KT P6SM SCT020
      TEMPO 2214/2216 4SM BR OVC015=

USA.gov is the U.S. government's official web portal to all federal, state and local government web resources and services.